sensor_id;sensor_type;location;lat;lon;timestamp;temperature;humidity
25108;DHT22;13090;53.422;7.670;2023-06-04T00:01:29;14.50;57.00
25108;DHT22;13090;53.422;7.670;2023-06-04T00:06:50;14.50;57.70
25108;DHT22;13090;53.422;7.670;2023-06-04T00:12:11;14.40;57.60
25108;DHT22;13090;53.422;7.670;2023-06-04T00:17:33;14.40;57.80
25108;DHT22;13090;53.422;7.670;2023-06-04T00:22:54;14.40;58.30
25108;DHT22;13090;53.422;7.670;2023-06-04T00:28:15;14.30;58.20
25108;DHT22;13090;53.422;7.670;2023-06-04T00:33:38;14.20;58.30
25108;DHT22;13090;53.422;7.670;2023-06-04T00:38:59;14.10;58.70
25108;DHT22;13090;53.422;7.670;2023-06-04T00:44:20;14.00;58.50
25108;DHT22;13090;53.422;7.670;2023-06-04T00:49:43;13.90;58.70
25108;DHT22;13090;53.422;7.670;2023-06-04T00:55:04;13.80;59.20
25108;DHT22;13090;53.422;7.670;2023-06-04T01:00:25;13.70;59.10
25108;DHT22;13090;53.422;7.670;2023-06-04T01:05:54;13.60;59.40
25108;DHT22;13090;53.422;7.670;2023-06-04T01:11:17;13.60;60.30
25108;DHT22;13090;53.422;7.670;2023-06-04T01:16:42;13.50;59.60
25108;DHT22;13090;53.422;7.670;2023-06-04T01:22:10;13.40;60.20
25108;DHT22;13090;53.422;7.670;2023-06-04T01:27:32;13.30;60.70
25108;DHT22;13090;53.422;7.670;2023-06-04T01:32:54;13.20;60.00
25108;DHT22;13090;53.422;7.670;2023-06-04T01:38:16;13.10;60.40
25108;DHT22;13090;53.422;7.670;2023-06-04T01:43:38;13.10;60.90
25108;DHT22;13090;53.422;7.670;2023-06-04T01:48:59;13.00;60.70
25108;DHT22;13090;53.422;7.670;2023-06-04T01:54:21;13.00;60.80
25108;DHT22;13090;53.422;7.670;2023-06-04T01:59:42;12.90;61.30
25108;DHT22;13090;53.422;7.670;2023-06-04T02:05:03;12.90;61.10
25108;DHT22;13090;53.422;7.670;2023-06-04T02:10:26;12.80;61.30
25108;DHT22;13090;53.422;7.670;2023-06-04T02:15:47;12.80;61.70
25108;DHT22;13090;53.422;7.670;2023-06-04T02:21:11;12.70;61.50
25108;DHT22;13090;53.422;7.670;2023-06-04T02:26:34;12.70;62.30
25108;DHT22;13090;53.422;7.670;2023-06-04T02:31:54;12.60;62.20
25108;DHT22;13090;53.422;7.670;2023-06-04T02:37:15;12.50;62.00
25108;DHT22;13090;53.422;7.670;2023-06-04T02:42:38;12.50;62.30
25108;DHT22;13090;53.422;7.670;2023-06-04T02:47:59;12.40;63.00
25108;DHT22;13090;53.422;7.670;2023-06-04T02:53:20;12.40;63.10
25108;DHT22;13090;53.422;7.670;2023-06-04T02:59:00;12.40;63.60
25108;DHT22;13090;53.422;7.670;2023-06-04T03:04:21;12.30;66.30
25108;DHT22;13090;53.422;7.670;2023-06-04T03:09:42;12.30;64.20
25108;DHT22;13090;53.422;7.670;2023-06-04T03:15:06;12.30;64.60
25108;DHT22;13090;53.422;7.670;2023-06-04T03:20:27;12.30;65.50
25108;DHT22;13090;53.422;7.670;2023-06-04T03:25:48;12.40;65.40
25108;DHT22;13090;53.422;7.670;2023-06-04T03:31:10;12.40;65.60
25108;DHT22;13090;53.422;7.670;2023-06-04T03:36:31;12.40;66.20
25108;DHT22;13090;53.422;7.670;2023-06-04T03:41:53;12.50;66.00
25108;DHT22;13090;53.422;7.670;2023-06-04T03:47:15;12.60;66.10
25108;DHT22;13090;53.422;7.670;2023-06-04T03:52:36;12.50;66.40
25108;DHT22;13090;53.422;7.670;2023-06-04T03:57:57;12.60;66.10
25108;DHT22;13090;53.422;7.670;2023-06-04T04:03:19;12.60;66.20
25108;DHT22;13090;53.422;7.670;2023-06-04T04:08:40;12.70;66.80
25108;DHT22;13090;53.422;7.670;2023-06-04T04:14:01;12.80;66.80
25108;DHT22;13090;53.422;7.670;2023-06-04T04:19:25;12.90;67.10
25108;DHT22;13090;53.422;7.670;2023-06-04T04:24:46;13.10;68.00
25108;DHT22;13090;53.422;7.670;2023-06-04T04:30:08;13.30;67.50
25108;DHT22;13090;53.422;7.670;2023-06-04T04:35:31;13.50;67.80
25108;DHT22;13090;53.422;7.670;2023-06-04T04:40:51;13.70;68.10
25108;DHT22;13090;53.422;7.670;2023-06-04T04:46:12;14.00;67.90
25108;DHT22;13090;53.422;7.670;2023-06-04T04:51:35;14.30;68.20
25108;DHT22;13090;53.422;7.670;2023-06-04T04:56:55;14.60;68.40
25108;DHT22;13090;53.422;7.670;2023-06-04T05:02:34;15.00;68.10
25108;DHT22;13090;53.422;7.670;2023-06-04T05:07:57;15.50;68.00
25108;DHT22;13090;53.422;7.670;2023-06-04T05:13:18;16.00;68.40
25108;DHT22;13090;53.422;7.670;2023-06-04T05:18:39;16.50;68.20
25108;DHT22;13090;53.422;7.670;2023-06-04T05:24:01;17.20;68.20
25108;DHT22;13090;53.422;7.670;2023-06-04T05:29:22;18.00;68.10
25108;DHT22;13090;53.422;7.670;2023-06-04T05:34:44;18.90;67.30
25108;DHT22;13090;53.422;7.670;2023-06-04T05:40:08;19.80;66.10
25108;DHT22;13090;53.422;7.670;2023-06-04T05:45:29;20.70;64.60
25108;DHT22;13090;53.422;7.670;2023-06-04T05:50:50;21.60;63.00
25108;DHT22;13090;53.422;7.670;2023-06-04T05:56:12;22.40;61.40
25108;DHT22;13090;53.422;7.670;2023-06-04T06:01:33;23.00;59.70
25108;DHT22;13090;53.422;7.670;2023-06-04T06:06:55;23.60;58.60
25108;DHT22;13090;53.422;7.670;2023-06-04T06:12:17;24.20;57.40
25108;DHT22;13090;53.422;7.670;2023-06-04T06:17:38;24.70;56.40
25108;DHT22;13090;53.422;7.670;2023-06-04T06:23:05;25.20;55.80
25108;DHT22;13090;53.422;7.670;2023-06-04T06:28:28;25.80;54.00
25108;DHT22;13090;53.422;7.670;2023-06-04T06:33:48;26.30;53.10
25108;DHT22;13090;53.422;7.670;2023-06-04T06:39:09;26.60;52.20
25108;DHT22;13090;53.422;7.670;2023-06-04T06:44:32;27.00;51.50
25108;DHT22;13090;53.422;7.670;2023-06-04T06:49:53;27.60;50.90
25108;DHT22;13090;53.422;7.670;2023-06-04T06:55:14;28.00;49.40
25108;DHT22;13090;53.422;7.670;2023-06-04T07:00:36;28.40;47.50
25108;DHT22;13090;53.422;7.670;2023-06-04T07:05:57;28.50;46.00
25108;DHT22;13090;53.422;7.670;2023-06-04T07:11:18;28.40;45.10
25108;DHT22;13090;53.422;7.670;2023-06-04T07:16:40;28.30;45.60
25108;DHT22;13090;53.422;7.670;2023-06-04T07:22:01;28.60;45.30
25108;DHT22;13090;53.422;7.670;2023-06-04T07:27:22;29.00;43.80
25108;DHT22;13090;53.422;7.670;2023-06-04T07:32:47;29.40;44.50
25108;DHT22;13090;53.422;7.670;2023-06-04T07:38:08;29.90;43.20
25108;DHT22;13090;53.422;7.670;2023-06-04T07:43:29;30.30;44.80
25108;DHT22;13090;53.422;7.670;2023-06-04T07:48:51;30.50;42.50
25108;DHT22;13090;53.422;7.670;2023-06-04T07:54:12;30.70;41.40
25108;DHT22;13090;53.422;7.670;2023-06-04T07:59:33;31.00;41.50
25108;DHT22;13090;53.422;7.670;2023-06-04T08:04:55;31.40;40.70
25108;DHT22;13090;53.422;7.670;2023-06-04T08:10:16;31.70;39.90
25108;DHT22;13090;53.422;7.670;2023-06-04T08:15:37;32.10;39.40
25108;DHT22;13090;53.422;7.670;2023-06-04T08:21:01;32.40;38.80
25108;DHT22;13090;53.422;7.670;2023-06-04T08:26:22;32.60;36.90
25108;DHT22;13090;53.422;7.670;2023-06-04T08:31:43;32.80;37.50
25108;DHT22;13090;53.422;7.670;2023-06-04T08:37:06;32.90;37.20
25108;DHT22;13090;53.422;7.670;2023-06-04T08:42:30;33.30;36.90
25108;DHT22;13090;53.422;7.670;2023-06-04T08:47:52;33.50;36.10
25108;DHT22;13090;53.422;7.670;2023-06-04T08:53:15;33.80;36.20
25108;DHT22;13090;53.422;7.670;2023-06-04T08:58:40;33.80;35.10
25108;DHT22;13090;53.422;7.670;2023-06-04T09:04:04;33.90;34.50
25108;DHT22;13090;53.422;7.670;2023-06-04T09:09:29;34.10;34.80
25108;DHT22;13090;53.422;7.670;2023-06-04T09:14:51;33.90;32.10
25108;DHT22;13090;53.422;7.670;2023-06-04T09:20:22;33.50;33.30
25108;DHT22;13090;53.422;7.670;2023-06-04T09:25:44;33.40;32.40
25108;DHT22;13090;53.422;7.670;2023-06-04T09:31:04;33.40;32.50
25108;DHT22;13090;53.422;7.670;2023-06-04T09:36:30;33.30;32.70
25108;DHT22;13090;53.422;7.670;2023-06-04T09:41:59;33.30;32.00
25108;DHT22;13090;53.422;7.670;2023-06-04T09:47:20;33.10;30.70
25108;DHT22;13090;53.422;7.670;2023-06-04T09:52:41;32.60;30.70
25108;DHT22;13090;53.422;7.670;2023-06-04T09:58:04;32.10;32.30
25108;DHT22;13090;53.422;7.670;2023-06-04T10:03:25;31.80;32.50
25108;DHT22;13090;53.422;7.670;2023-06-04T10:08:50;31.50;33.40
25108;DHT22;13090;53.422;7.670;2023-06-04T10:14:18;31.90;34.30
25108;DHT22;13090;53.422;7.670;2023-06-04T10:19:43;32.50;34.20
25108;DHT22;13090;53.422;7.670;2023-06-04T10:25:05;33.20;33.70
25108;DHT22;13090;53.422;7.670;2023-06-04T10:30:29;33.70;33.70
25108;DHT22;13090;53.422;7.670;2023-06-04T10:35:52;34.10;32.70
25108;DHT22;13090;53.422;7.670;2023-06-04T10:41:14;34.30;32.40
25108;DHT22;13090;53.422;7.670;2023-06-04T10:46:41;34.40;32.30
25108;DHT22;13090;53.422;7.670;2023-06-04T10:52:10;34.30;31.60
25108;DHT22;13090;53.422;7.670;2023-06-04T10:57:31;34.40;31.70
25108;DHT22;13090;53.422;7.670;2023-06-04T11:02:54;34.50;32.10
25108;DHT22;13090;53.422;7.670;2023-06-04T11:08:26;34.50;31.40
25108;DHT22;13090;53.422;7.670;2023-06-04T11:13:47;34.60;30.90
25108;DHT22;13090;53.422;7.670;2023-06-04T11:19:09;34.40;30.50
25108;DHT22;13090;53.422;7.670;2023-06-04T11:24:31;33.70;29.90
25108;DHT22;13090;53.422;7.670;2023-06-04T11:29:52;32.90;31.40
25108;DHT22;13090;53.422;7.670;2023-06-04T11:35:15;32.60;31.80
25108;DHT22;13090;53.422;7.670;2023-06-04T11:40:36;32.30;32.10
25108;DHT22;13090;53.422;7.670;2023-06-04T11:45:57;31.80;32.00
25108;DHT22;13090;53.422;7.670;2023-06-04T11:51:21;31.60;32.70
25108;DHT22;13090;53.422;7.670;2023-06-04T11:56:42;31.40;31.60
25108;DHT22;13090;53.422;7.670;2023-06-04T12:02:03;30.60;32.50
25108;DHT22;13090;53.422;7.670;2023-06-04T12:07:26;30.30;33.40
25108;DHT22;13090;53.422;7.670;2023-06-04T12:12:54;30.30;33.90
25108;DHT22;13090;53.422;7.670;2023-06-04T12:18:23;30.40;34.00
25108;DHT22;13090;53.422;7.670;2023-06-04T12:23:46;30.60;33.90
25108;DHT22;13090;53.422;7.670;2023-06-04T12:29:08;30.60;33.70
25108;DHT22;13090;53.422;7.670;2023-06-04T12:34:30;30.40;33.70
25108;DHT22;13090;53.422;7.670;2023-06-04T12:39:52;30.10;34.10
25108;DHT22;13090;53.422;7.670;2023-06-04T12:45:14;30.00;34.20
25108;DHT22;13090;53.422;7.670;2023-06-04T12:50:34;30.00;34.30
25108;DHT22;13090;53.422;7.670;2023-06-04T12:55:58;30.00;34.40
25108;DHT22;13090;53.422;7.670;2023-06-04T13:01:19;30.00;34.30
25108;DHT22;13090;53.422;7.670;2023-06-04T13:06:40;29.80;34.60
25108;DHT22;13090;53.422;7.670;2023-06-04T13:12:02;29.60;34.60
25108;DHT22;13090;53.422;7.670;2023-06-04T13:17:23;29.50;34.60
25108;DHT22;13090;53.422;7.670;2023-06-04T13:22:44;29.30;34.80
25108;DHT22;13090;53.422;7.670;2023-06-04T13:28:06;29.20;35.00
25108;DHT22;13090;53.422;7.670;2023-06-04T13:33:27;29.10;35.30
25108;DHT22;13090;53.422;7.670;2023-06-04T13:38:48;29.10;35.30
25108;DHT22;13090;53.422;7.670;2023-06-04T13:44:11;29.10;35.20
25108;DHT22;13090;53.422;7.670;2023-06-04T13:49:33;29.00;35.10
25108;DHT22;13090;53.422;7.670;2023-06-04T13:54:54;28.90;35.10
25108;DHT22;13090;53.422;7.670;2023-06-04T14:00:17;28.80;35.00
25108;DHT22;13090;53.422;7.670;2023-06-04T14:05:38;28.70;35.90
25108;DHT22;13090;53.422;7.670;2023-06-04T14:10:59;28.60;35.10
25108;DHT22;13090;53.422;7.670;2023-06-04T14:16:21;28.50;35.20
25108;DHT22;13090;53.422;7.670;2023-06-04T14:21:43;28.40;35.20
25108;DHT22;13090;53.422;7.670;2023-06-04T14:27:04;28.40;35.60
25108;DHT22;13090;53.422;7.670;2023-06-04T14:32:27;28.30;35.40
25108;DHT22;13090;53.422;7.670;2023-06-04T14:37:48;28.20;36.10
25108;DHT22;13090;53.422;7.670;2023-06-04T14:43:10;28.10;35.40
25108;DHT22;13090;53.422;7.670;2023-06-04T14:48:32;27.90;35.70
25108;DHT22;13090;53.422;7.670;2023-06-04T14:53:54;27.70;35.80
25108;DHT22;13090;53.422;7.670;2023-06-04T14:59:14;27.60;35.90
25108;DHT22;13090;53.422;7.670;2023-06-04T15:04:37;27.40;36.10
25108;DHT22;13090;53.422;7.670;2023-06-04T15:09:57;27.20;36.10
25108;DHT22;13090;53.422;7.670;2023-06-04T15:15:18;27.00;36.40
25108;DHT22;13090;53.422;7.670;2023-06-04T15:20:40;26.80;36.60
25108;DHT22;13090;53.422;7.670;2023-06-04T15:26:01;26.70;36.90
25108;DHT22;13090;53.422;7.670;2023-06-04T15:31:22;26.60;36.80
25108;DHT22;13090;53.422;7.670;2023-06-04T15:36:45;26.40;36.90
25108;DHT22;13090;53.422;7.670;2023-06-04T15:42:06;26.30;37.20
25108;DHT22;13090;53.422;7.670;2023-06-04T15:47:27;26.10;37.20
25108;DHT22;13090;53.422;7.670;2023-06-04T15:52:49;25.90;37.30
25108;DHT22;13090;53.422;7.670;2023-06-04T15:58:10;25.70;37.50
25108;DHT22;13090;53.422;7.670;2023-06-04T16:03:31;25.60;37.80
25108;DHT22;13090;53.422;7.670;2023-06-04T16:08:53;25.40;38.00
25108;DHT22;13090;53.422;7.670;2023-06-04T16:14:14;25.30;38.50
25108;DHT22;13090;53.422;7.670;2023-06-04T16:19:35;25.10;38.30
25108;DHT22;13090;53.422;7.670;2023-06-04T16:24:58;25.00;38.70
25108;DHT22;13090;53.422;7.670;2023-06-04T16:30:19;24.70;38.80
25108;DHT22;13090;53.422;7.670;2023-06-04T16:35:40;24.60;39.70
25108;DHT22;13090;53.422;7.670;2023-06-04T16:41:02;24.40;39.30
25108;DHT22;13090;53.422;7.670;2023-06-04T16:46:24;24.30;39.70
25108;DHT22;13090;53.422;7.670;2023-06-04T16:51:45;24.20;39.90
25108;DHT22;13090;53.422;7.670;2023-06-04T16:57:08;24.00;40.00
25108;DHT22;13090;53.422;7.670;2023-06-04T17:02:28;23.90;40.30
25108;DHT22;13090;53.422;7.670;2023-06-04T17:07:49;23.70;40.30
25108;DHT22;13090;53.422;7.670;2023-06-04T17:13:11;23.50;40.30
25108;DHT22;13090;53.422;7.670;2023-06-04T17:18:32;23.40;40.80
25108;DHT22;13090;53.422;7.670;2023-06-04T17:23:53;23.20;40.90
25108;DHT22;13090;53.422;7.670;2023-06-04T17:29:15;23.00;41.20
25108;DHT22;13090;53.422;7.670;2023-06-04T17:34:36;22.80;41.50
25108;DHT22;13090;53.422;7.670;2023-06-04T17:39:57;22.60;41.50
25108;DHT22;13090;53.422;7.670;2023-06-04T17:45:19;22.50;41.90
25108;DHT22;13090;53.422;7.670;2023-06-04T17:50:40;22.30;42.30
25108;DHT22;13090;53.422;7.670;2023-06-04T17:56:01;22.20;42.40
25108;DHT22;13090;53.422;7.670;2023-06-04T18:01:24;22.00;42.50
25108;DHT22;13090;53.422;7.670;2023-06-04T18:06:44;21.90;42.90
25108;DHT22;13090;53.422;7.670;2023-06-04T18:12:05;21.80;43.20
25108;DHT22;13090;53.422;7.670;2023-06-04T18:17:28;21.60;43.30
25108;DHT22;13090;53.422;7.670;2023-06-04T18:22:49;21.50;43.60
25108;DHT22;13090;53.422;7.670;2023-06-04T18:28:10;21.40;43.80
25108;DHT22;13090;53.422;7.670;2023-06-04T18:33:32;21.20;43.90
25108;DHT22;13090;53.422;7.670;2023-06-04T18:38:52;21.00;44.40
25108;DHT22;13090;53.422;7.670;2023-06-04T18:44:13;20.80;44.50
25108;DHT22;13090;53.422;7.670;2023-06-04T18:49:36;20.70;44.90
25108;DHT22;13090;53.422;7.670;2023-06-04T18:54:57;20.50;45.40
25108;DHT22;13090;53.422;7.670;2023-06-04T19:00:19;20.30;45.20
25108;DHT22;13090;53.422;7.670;2023-06-04T19:05:41;20.10;45.40
25108;DHT22;13090;53.422;7.670;2023-06-04T19:11:02;19.90;45.70
25108;DHT22;13090;53.422;7.670;2023-06-04T19:16:23;19.70;45.90
25108;DHT22;13090;53.422;7.670;2023-06-04T19:21:47;19.50;46.20
25108;DHT22;13090;53.422;7.670;2023-06-04T19:27:08;19.30;47.00
25108;DHT22;13090;53.422;7.670;2023-06-04T19:32:30;19.10;46.90
25108;DHT22;13090;53.422;7.670;2023-06-04T19:37:52;19.00;47.30
25108;DHT22;13090;53.422;7.670;2023-06-04T19:43:13;18.80;47.70
25108;DHT22;13090;53.422;7.670;2023-06-04T19:48:34;18.70;47.70
25108;DHT22;13090;53.422;7.670;2023-06-04T19:53:56;18.50;47.90
25108;DHT22;13090;53.422;7.670;2023-06-04T19:59:17;18.40;48.20
25108;DHT22;13090;53.422;7.670;2023-06-04T20:04:39;18.20;48.10
25108;DHT22;13090;53.422;7.670;2023-06-04T20:10:01;18.10;48.40
25108;DHT22;13090;53.422;7.670;2023-06-04T20:15:22;18.00;48.80
25108;DHT22;13090;53.422;7.670;2023-06-04T20:20:43;17.90;48.80
25108;DHT22;13090;53.422;7.670;2023-06-04T20:26:07;17.80;49.10
25108;DHT22;13090;53.422;7.670;2023-06-04T20:31:28;17.60;49.60
25108;DHT22;13090;53.422;7.670;2023-06-04T20:36:50;17.50;49.60
25108;DHT22;13090;53.422;7.670;2023-06-04T20:42:12;17.50;50.00
25108;DHT22;13090;53.422;7.670;2023-06-04T20:47:33;17.40;50.40
25108;DHT22;13090;53.422;7.670;2023-06-04T20:52:54;17.40;50.60
25108;DHT22;13090;53.422;7.670;2023-06-04T20:58:16;17.40;50.70
25108;DHT22;13090;53.422;7.670;2023-06-04T21:03:37;17.40;50.90
25108;DHT22;13090;53.422;7.670;2023-06-04T21:08:58;17.40;50.80
25108;DHT22;13090;53.422;7.670;2023-06-04T21:14:20;17.40;51.00
25108;DHT22;13090;53.422;7.670;2023-06-04T21:19:41;17.40;51.30
25108;DHT22;13090;53.422;7.670;2023-06-04T21:25:02;17.30;51.10
25108;DHT22;13090;53.422;7.670;2023-06-04T21:30:24;17.30;51.90
25108;DHT22;13090;53.422;7.670;2023-06-04T21:35:45;17.30;51.50
25108;DHT22;13090;53.422;7.670;2023-06-04T21:41:06;17.20;51.60
25108;DHT22;13090;53.422;7.670;2023-06-04T21:46:29;17.30;51.70
25108;DHT22;13090;53.422;7.670;2023-06-04T21:51:50;17.20;51.70
25108;DHT22;13090;53.422;7.670;2023-06-04T21:57:11;17.20;51.50
25108;DHT22;13090;53.422;7.670;2023-06-04T22:02:33;17.10;51.50
25108;DHT22;13090;53.422;7.670;2023-06-04T22:07:54;17.00;51.70
25108;DHT22;13090;53.422;7.670;2023-06-04T22:13:15;16.90;51.80
25108;DHT22;13090;53.422;7.670;2023-06-04T22:18:37;16.70;51.90
25108;DHT22;13090;53.422;7.670;2023-06-04T22:24:12;16.60;52.40
25108;DHT22;13090;53.422;7.670;2023-06-04T22:29:33;16.50;52.30
25108;DHT22;13090;53.422;7.670;2023-06-04T22:34:55;16.30;52.60
25108;DHT22;13090;53.422;7.670;2023-06-04T22:40:17;16.30;53.00
25108;DHT22;13090;53.422;7.670;2023-06-04T22:45:37;16.20;53.20
25108;DHT22;13090;53.422;7.670;2023-06-04T22:51:00;16.20;53.30
25108;DHT22;13090;53.422;7.670;2023-06-04T22:56:20;16.20;53.80
25108;DHT22;13090;53.422;7.670;2023-06-04T23:01:41;16.20;53.70
25108;DHT22;13090;53.422;7.670;2023-06-04T23:07:03;16.20;53.90
25108;DHT22;13090;53.422;7.670;2023-06-04T23:12:26;16.30;54.20
25108;DHT22;13090;53.422;7.670;2023-06-04T23:17:47;16.30;54.00
25108;DHT22;13090;53.422;7.670;2023-06-04T23:23:09;16.30;54.20
25108;DHT22;13090;53.422;7.670;2023-06-04T23:28:30;16.30;54.50
25108;DHT22;13090;53.422;7.670;2023-06-04T23:33:51;16.40;54.50
25108;DHT22;13090;53.422;7.670;2023-06-04T23:39:13;16.30;54.50
25108;DHT22;13090;53.422;7.670;2023-06-04T23:44:34;16.30;54.80
25108;DHT22;13090;53.422;7.670;2023-06-04T23:49:55;16.30;54.70
25108;DHT22;13090;53.422;7.670;2023-06-04T23:55:17;16.20;54.90
